sensor_id;sensor_type;location;lat;lon;timestamp;P1;durP1;ratioP1;P2;durP2;ratioP2
18302;SDS011;9277;37.980;23.748;2022-09-03T00:01:24;6.35;;;3.30;;
18302;SDS011;9277;37.980;23.748;2022-09-03T00:03:56;4.43;;;2.90;;
18302;SDS011;9277;37.980;23.748;2022-09-03T00:06:24;5.97;;;2.97;;
18302;SDS011;9277;37.980;23.748;2022-09-03T00:08:54;5.85;;;2.85;;
18302;SDS011;9277;37.980;23.748;2022-09-03T00:11:25;5.43;;;2.97;;
18302;SDS011;9277;37.980;23.748;2022-09-03T00:13:54;8.00;;;3.70;;
18302;SDS011;9277;37.980;23.748;2022-09-03T00:16:24;6.85;;;3.10;;
18302;SDS011;9277;37.980;23.748;2022-09-03T00:18:55;8.02;;;4.03;;
18302;SDS011;9277;37.980;23.748;2022-09-03T00:21:26;13.63;;;4.20;;
18302;SDS011;9277;37.980;23.748;2022-09-03T00:23:54;6.95;;;3.83;;
18302;SDS011;9277;37.980;23.748;2022-09-03T00:26:24;12.40;;;4.45;;
18302;SDS011;9277;37.980;23.748;2022-09-03T00:28:54;9.85;;;4.47;;
18302;SDS011;9277;37.980;23.748;2022-09-03T00:31:24;4.85;;;4.05;;
18302;SDS011;9277;37.980;23.748;2022-09-03T00:33:53;10.88;;;4.57;;
18302;SDS011;9277;37.980;23.748;2022-09-03T00:36:23;9.60;;;4.82;;
18302;SDS011;9277;37.980;23.748;2022-09-03T00:38:53;8.77;;;5.05;;
18302;SDS011;9277;37.980;23.748;2022-09-03T00:41:23;9.77;;;5.57;;
18302;SDS011;9277;37.980;23.748;2022-09-03T00:44:05;10.73;;;5.85;;
18302;SDS011;9277;37.980;23.748;2022-09-03T00:46:36;10.65;;;5.75;;
18302;SDS011;9277;37.980;23.748;2022-09-03T00:51:51;15.20;;;6.60;;
18302;SDS011;9277;37.980;23.748;2022-09-03T00:54:25;12.93;;;6.45;;
18302;SDS011;9277;37.980;23.748;2022-09-03T00:56:55;10.70;;;6.38;;
18302;SDS011;9277;37.980;23.748;2022-09-03T00:59:28;10.63;;;6.63;;
18302;SDS011;9277;37.980;23.748;2022-09-03T01:02:00;10.10;;;7.05;;
18302;SDS011;9277;37.980;23.748;2022-09-03T01:04:33;15.60;;;7.18;;
18302;SDS011;9277;37.980;23.748;2022-09-03T01:07:03;10.52;;;7.20;;
18302;SDS011;9277;37.980;23.748;2022-09-03T01:09:37;15.32;;;6.63;;
18302;SDS011;9277;37.980;23.748;2022-09-03T01:12:09;10.88;;;6.70;;
18302;SDS011;9277;37.980;23.748;2022-09-03T01:14:44;12.57;;;6.90;;
18302;SDS011;9277;37.980;23.748;2022-09-03T01:17:15;11.95;;;6.80;;
18302;SDS011;9277;37.980;23.748;2022-09-03T01:25:15;12.32;;;6.75;;
18302;SDS011;9277;37.980;23.748;2022-09-03T01:30:21;14.20;;;7.05;;
18302;SDS011;9277;37.980;23.748;2022-09-03T01:32:50;17.52;;;6.97;;
18302;SDS011;9277;37.980;23.748;2022-09-03T01:35:20;16.45;;;7.32;;
18302;SDS011;9277;37.980;23.748;2022-09-03T01:37:53;14.15;;;7.10;;
18302;SDS011;9277;37.980;23.748;2022-09-03T01:40:26;15.27;;;7.00;;
18302;SDS011;9277;37.980;23.748;2022-09-03T01:43:03;15.68;;;7.20;;
18302;SDS011;9277;37.980;23.748;2022-09-03T01:45:39;10.95;;;6.43;;
18302;SDS011;9277;37.980;23.748;2022-09-03T01:48:11;7.85;;;6.03;;
18302;SDS011;9277;37.980;23.748;2022-09-03T01:50:45;10.85;;;6.28;;
18302;SDS011;9277;37.980;23.748;2022-09-03T01:53:18;9.68;;;6.00;;
18302;SDS011;9277;37.980;23.748;2022-09-03T01:55:53;9.70;;;5.60;;
18302;SDS011;9277;37.980;23.748;2022-09-03T01:58:24;6.45;;;5.15;;
18302;SDS011;9277;37.980;23.748;2022-09-03T02:00:56;9.10;;;4.65;;
18302;SDS011;9277;37.980;23.748;2022-09-03T02:03:25;9.65;;;4.65;;
18302;SDS011;9277;37.980;23.748;2022-09-03T02:05:59;6.13;;;4.28;;
18302;SDS011;9277;37.980;23.748;2022-09-03T02:08:26;5.50;;;3.65;;
18302;SDS011;9277;37.980;23.748;2022-09-03T02:10:54;7.35;;;4.03;;
18302;SDS011;9277;37.980;23.748;2022-09-03T02:13:26;8.80;;;4.32;;
18302;SDS011;9277;37.980;23.748;2022-09-03T02:15:57;6.70;;;4.18;;
18302;SDS011;9277;37.980;23.748;2022-09-03T02:18:27;6.35;;;4.10;;
18302;SDS011;9277;37.980;23.748;2022-09-03T02:20:55;6.43;;;3.60;;
18302;SDS011;9277;37.980;23.748;2022-09-03T02:23:23;7.10;;;4.05;;
18302;SDS011;9277;37.980;23.748;2022-09-03T02:25:51;5.32;;;3.60;;
18302;SDS011;9277;37.980;23.748;2022-09-03T02:28:18;5.47;;;3.58;;
18302;SDS011;9277;37.980;23.748;2022-09-03T02:30:45;6.30;;;3.60;;
18302;SDS011;9277;37.980;23.748;2022-09-03T02:33:14;5.72;;;4.30;;
18302;SDS011;9277;37.980;23.748;2022-09-03T02:35:41;8.85;;;4.50;;
18302;SDS011;9277;37.980;23.748;2022-09-03T02:38:08;8.38;;;4.65;;
18302;SDS011;9277;37.980;23.748;2022-09-03T02:40:35;10.10;;;4.90;;
18302;SDS011;9277;37.980;23.748;2022-09-03T02:43:02;7.38;;;4.43;;
18302;SDS011;9277;37.980;23.748;2022-09-03T02:45:30;7.68;;;4.82;;
18302;SDS011;9277;37.980;23.748;2022-09-03T02:47:58;7.05;;;4.45;;
18302;SDS011;9277;37.980;23.748;2022-09-03T02:50:27;10.20;;;5.22;;
18302;SDS011;9277;37.980;23.748;2022-09-03T02:52:53;8.27;;;5.07;;
18302;SDS011;9277;37.980;23.748;2022-09-03T02:55:21;8.30;;;5.32;;
18302;SDS011;9277;37.980;23.748;2022-09-03T02:57:47;8.05;;;5.20;;
18302;SDS011;9277;37.980;23.748;2022-09-03T03:00:14;8.50;;;5.90;;
18302;SDS011;9277;37.980;23.748;2022-09-03T03:02:41;7.28;;;4.80;;
18302;SDS011;9277;37.980;23.748;2022-09-03T03:05:08;12.77;;;5.63;;
18302;SDS011;9277;37.980;23.748;2022-09-03T03:07:40;10.23;;;5.65;;
18302;SDS011;9277;37.980;23.748;2022-09-03T03:10:10;9.43;;;5.15;;
18302;SDS011;9277;37.980;23.748;2022-09-03T03:12:37;7.35;;;4.88;;
18302;SDS011;9277;37.980;23.748;2022-09-03T03:15:04;6.82;;;4.57;;
18302;SDS011;9277;37.980;23.748;2022-09-03T03:17:31;9.93;;;4.40;;
18302;SDS011;9277;37.980;23.748;2022-09-03T03:19:58;6.75;;;4.10;;
18302;SDS011;9277;37.980;23.748;2022-09-03T03:22:25;9.00;;;4.03;;
18302;SDS011;9277;37.980;23.748;2022-09-03T03:24:53;6.15;;;3.55;;
18302;SDS011;9277;37.980;23.748;2022-09-03T03:27:21;6.05;;;3.13;;
18302;SDS011;9277;37.980;23.748;2022-09-03T03:29:49;5.95;;;3.53;;
18302;SDS011;9277;37.980;23.748;2022-09-03T03:32:16;7.97;;;4.13;;
18302;SDS011;9277;37.980;23.748;2022-09-03T03:34:43;6.72;;;3.78;;
18302;SDS011;9277;37.980;23.748;2022-09-03T03:37:10;13.07;;;4.28;;
18302;SDS011;9277;37.980;23.748;2022-09-03T03:39:36;8.60;;;3.92;;
18302;SDS011;9277;37.980;23.748;2022-09-03T03:42:05;7.15;;;4.00;;
18302;SDS011;9277;37.980;23.748;2022-09-03T03:44:31;8.65;;;3.83;;
18302;SDS011;9277;37.980;23.748;2022-09-03T03:46:58;9.48;;;4.60;;
18302;SDS011;9277;37.980;23.748;2022-09-03T03:49:25;9.30;;;4.70;;
18302;SDS011;9277;37.980;23.748;2022-09-03T03:51:52;7.22;;;4.47;;
18302;SDS011;9277;37.980;23.748;2022-09-03T03:54:19;4.85;;;4.35;;
18302;SDS011;9277;37.980;23.748;2022-09-03T03:56:46;8.65;;;4.95;;
18302;SDS011;9277;37.980;23.748;2022-09-03T03:59:14;7.95;;;4.13;;
18302;SDS011;9277;37.980;23.748;2022-09-03T04:01:41;7.93;;;4.13;;
18302;SDS011;9277;37.980;23.748;2022-09-03T04:04:08;11.68;;;4.15;;
18302;SDS011;9277;37.980;23.748;2022-09-03T04:06:35;7.07;;;4.35;;
18302;SDS011;9277;37.980;23.748;2022-09-03T04:09:02;11.32;;;5.07;;
18302;SDS011;9277;37.980;23.748;2022-09-03T04:11:29;9.07;;;4.22;;
18302;SDS011;9277;37.980;23.748;2022-09-03T04:13:55;8.27;;;4.30;;
18302;SDS011;9277;37.980;23.748;2022-09-03T04:16:24;5.57;;;3.92;;
18302;SDS011;9277;37.980;23.748;2022-09-03T04:18:52;13.18;;;4.65;;
18302;SDS011;9277;37.980;23.748;2022-09-03T04:21:19;7.68;;;4.72;;
18302;SDS011;9277;37.980;23.748;2022-09-03T04:23:47;9.02;;;5.28;;
18302;SDS011;9277;37.980;23.748;2022-09-03T04:26:15;9.73;;;4.65;;
18302;SDS011;9277;37.980;23.748;2022-09-03T04:28:42;10.68;;;5.38;;
18302;SDS011;9277;37.980;23.748;2022-09-03T04:31:10;8.50;;;4.60;;
18302;SDS011;9277;37.980;23.748;2022-09-03T04:33:39;11.00;;;5.20;;
18302;SDS011;9277;37.980;23.748;2022-09-03T04:36:07;9.00;;;5.30;;
18302;SDS011;9277;37.980;23.748;2022-09-03T04:38:34;6.80;;;5.05;;
18302;SDS011;9277;37.980;23.748;2022-09-03T04:41:01;12.80;;;5.03;;
18302;SDS011;9277;37.980;23.748;2022-09-03T04:43:28;13.35;;;5.53;;
18302;SDS011;9277;37.980;23.748;2022-09-03T04:45:56;12.93;;;5.40;;
18302;SDS011;9277;37.980;23.748;2022-09-03T04:48:23;13.18;;;5.22;;
18302;SDS011;9277;37.980;23.748;2022-09-03T04:50:52;8.75;;;5.63;;
18302;SDS011;9277;37.980;23.748;2022-09-03T04:53:19;10.23;;;5.38;;
18302;SDS011;9277;37.980;23.748;2022-09-03T04:55:46;8.80;;;5.53;;
18302;SDS011;9277;37.980;23.748;2022-09-03T04:58:13;10.20;;;5.25;;
18302;SDS011;9277;37.980;23.748;2022-09-03T05:00:40;11.80;;;6.22;;
18302;SDS011;9277;37.980;23.748;2022-09-03T05:03:07;12.18;;;6.05;;
18302;SDS011;9277;37.980;23.748;2022-09-03T05:05:34;12.07;;;6.55;;
18302;SDS011;9277;37.980;23.748;2022-09-03T05:08:02;29.88;;;7.25;;
18302;SDS011;9277;37.980;23.748;2022-09-03T05:10:30;20.92;;;6.55;;
18302;SDS011;9277;37.980;23.748;2022-09-03T05:12:57;14.48;;;7.20;;
18302;SDS011;9277;37.980;23.748;2022-09-03T05:15:24;26.15;;;8.65;;
18302;SDS011;9277;37.980;23.748;2022-09-03T05:17:54;25.65;;;7.90;;
18302;SDS011;9277;37.980;23.748;2022-09-03T05:20:21;25.70;;;7.28;;
18302;SDS011;9277;37.980;23.748;2022-09-03T05:22:48;12.13;;;6.93;;
18302;SDS011;9277;37.980;23.748;2022-09-03T05:25:16;17.35;;;8.05;;
18302;SDS011;9277;37.980;23.748;2022-09-03T05:27:43;12.60;;;6.53;;
18302;SDS011;9277;37.980;23.748;2022-09-03T05:30:10;15.85;;;7.88;;
18302;SDS011;9277;37.980;23.748;2022-09-03T05:32:37;15.23;;;7.50;;
18302;SDS011;9277;37.980;23.748;2022-09-03T05:35:04;12.82;;;7.18;;
18302;SDS011;9277;37.980;23.748;2022-09-03T05:37:31;13.57;;;6.82;;
18302;SDS011;9277;37.980;23.748;2022-09-03T05:39:58;10.68;;;6.70;;
18302;SDS011;9277;37.980;23.748;2022-09-03T05:42:27;12.30;;;7.25;;
18302;SDS011;9277;37.980;23.748;2022-09-03T05:44:55;18.35;;;7.25;;
18302;SDS011;9277;37.980;23.748;2022-09-03T05:47:22;12.65;;;6.20;;
18302;SDS011;9277;37.980;23.748;2022-09-03T05:49:49;11.70;;;6.95;;
18302;SDS011;9277;37.980;23.748;2022-09-03T05:52:16;15.95;;;6.57;;
18302;SDS011;9277;37.980;23.748;2022-09-03T05:54:45;14.85;;;6.53;;
18302;SDS011;9277;37.980;23.748;2022-09-03T05:57:12;13.00;;;6.60;;
18302;SDS011;9277;37.980;23.748;2022-09-03T05:59:41;10.13;;;5.97;;
18302;SDS011;9277;37.980;23.748;2022-09-03T06:02:07;13.43;;;6.32;;
18302;SDS011;9277;37.980;23.748;2022-09-03T06:04:34;9.13;;;5.65;;
18302;SDS011;9277;37.980;23.748;2022-09-03T06:07:01;11.15;;;6.47;;
18302;SDS011;9277;37.980;23.748;2022-09-03T06:09:28;10.77;;;6.18;;
18302;SDS011;9277;37.980;23.748;2022-09-03T06:11:55;11.38;;;6.13;;
18302;SDS011;9277;37.980;23.748;2022-09-03T06:14:22;14.07;;;7.18;;
18302;SDS011;9277;37.980;23.748;2022-09-03T06:16:50;10.77;;;6.28;;
18302;SDS011;9277;37.980;23.748;2022-09-03T06:19:18;12.75;;;6.63;;
18302;SDS011;9277;37.980;23.748;2022-09-03T06:21:46;11.15;;;5.95;;
18302;SDS011;9277;37.980;23.748;2022-09-03T06:24:13;9.05;;;6.07;;
18302;SDS011;9277;37.980;23.748;2022-09-03T06:26:40;9.68;;;5.97;;
18302;SDS011;9277;37.980;23.748;2022-09-03T06:29:07;14.52;;;6.40;;
18302;SDS011;9277;37.980;23.748;2022-09-03T06:31:34;12.40;;;6.07;;
18302;SDS011;9277;37.980;23.748;2022-09-03T06:34:03;8.82;;;5.50;;
18302;SDS011;9277;37.980;23.748;2022-09-03T06:36:30;10.20;;;5.72;;
18302;SDS011;9277;37.980;23.748;2022-09-03T06:38:57;8.98;;;5.82;;
18302;SDS011;9277;37.980;23.748;2022-09-03T06:41:25;9.63;;;6.25;;
18302;SDS011;9277;37.980;23.748;2022-09-03T06:43:52;12.20;;;6.15;;
18302;SDS011;9277;37.980;23.748;2022-09-03T06:46:27;9.23;;;5.90;;
18302;SDS011;9277;37.980;23.748;2022-09-03T06:48:54;8.02;;;5.03;;
18302;SDS011;9277;37.980;23.748;2022-09-03T06:51:23;10.75;;;5.88;;
18302;SDS011;9277;37.980;23.748;2022-09-03T06:53:52;13.40;;;6.50;;
18302;SDS011;9277;37.980;23.748;2022-09-03T06:56:21;12.18;;;6.22;;
18302;SDS011;9277;37.980;23.748;2022-09-03T06:58:52;13.90;;;6.50;;
18302;SDS011;9277;37.980;23.748;2022-09-03T07:01:20;13.68;;;6.82;;
18302;SDS011;9277;37.980;23.748;2022-09-03T07:03:47;9.32;;;5.85;;
18302;SDS011;9277;37.980;23.748;2022-09-03T07:06:20;12.00;;;6.22;;
18302;SDS011;9277;37.980;23.748;2022-09-03T07:08:48;10.23;;;5.80;;
18302;SDS011;9277;37.980;23.748;2022-09-03T07:11:15;9.93;;;6.22;;
18302;SDS011;9277;37.980;23.748;2022-09-03T07:13:44;13.10;;;5.57;;
18302;SDS011;9277;37.980;23.748;2022-09-03T07:16:12;7.70;;;6.00;;
18302;SDS011;9277;37.980;23.748;2022-09-03T07:18:40;9.63;;;5.63;;
18302;SDS011;9277;37.980;23.748;2022-09-03T07:21:15;9.73;;;5.70;;
18302;SDS011;9277;37.980;23.748;2022-09-03T07:23:44;6.68;;;5.15;;
18302;SDS011;9277;37.980;23.748;2022-09-03T07:26:13;14.20;;;7.05;;
18302;SDS011;9277;37.980;23.748;2022-09-03T07:28:41;11.68;;;6.40;;
18302;SDS011;9277;37.980;23.748;2022-09-03T07:31:09;9.35;;;5.88;;
18302;SDS011;9277;37.980;23.748;2022-09-03T07:33:36;8.38;;;5.80;;
18302;SDS011;9277;37.980;23.748;2022-09-03T07:36:03;17.17;;;7.03;;
18302;SDS011;9277;37.980;23.748;2022-09-03T07:38:31;8.40;;;6.13;;
18302;SDS011;9277;37.980;23.748;2022-09-03T07:40:58;11.55;;;5.78;;
18302;SDS011;9277;37.980;23.748;2022-09-03T07:43:28;10.68;;;6.72;;
18302;SDS011;9277;37.980;23.748;2022-09-03T07:45:56;17.13;;;6.82;;
18302;SDS011;9277;37.980;23.748;2022-09-03T07:48:22;9.25;;;6.15;;
18302;SDS011;9277;37.980;23.748;2022-09-03T07:50:50;11.43;;;7.47;;
18302;SDS011;9277;37.980;23.748;2022-09-03T07:53:17;13.35;;;7.22;;
18302;SDS011;9277;37.980;23.748;2022-09-03T07:55:45;10.63;;;5.75;;
18302;SDS011;9277;37.980;23.748;2022-09-03T07:58:12;12.52;;;6.60;;
18302;SDS011;9277;37.980;23.748;2022-09-03T08:00:41;12.30;;;6.30;;
18302;SDS011;9277;37.980;23.748;2022-09-03T08:03:08;11.20;;;6.30;;
18302;SDS011;9277;37.980;23.748;2022-09-03T08:05:35;12.90;;;6.10;;
18302;SDS011;9277;37.980;23.748;2022-09-03T08:08:02;9.82;;;6.70;;
18302;SDS011;9277;37.980;23.748;2022-09-03T08:10:29;12.85;;;6.50;;
18302;SDS011;9277;37.980;23.748;2022-09-03T08:12:57;7.43;;;5.70;;
18302;SDS011;9277;37.980;23.748;2022-09-03T08:15:24;13.18;;;6.90;;
18302;SDS011;9277;37.980;23.748;2022-09-03T08:17:53;11.48;;;7.60;;
18302;SDS011;9277;37.980;23.748;2022-09-03T08:20:20;14.48;;;7.43;;
18302;SDS011;9277;37.980;23.748;2022-09-03T08:22:47;13.13;;;6.95;;
18302;SDS011;9277;37.980;23.748;2022-09-03T08:25:14;16.83;;;7.47;;
18302;SDS011;9277;37.980;23.748;2022-09-03T08:27:40;11.68;;;6.63;;
18302;SDS011;9277;37.980;23.748;2022-09-03T08:30:07;13.55;;;7.00;;
18302;SDS011;9277;37.980;23.748;2022-09-03T08:32:35;11.57;;;6.70;;
18302;SDS011;9277;37.980;23.748;2022-09-03T08:35:04;13.93;;;7.05;;
18302;SDS011;9277;37.980;23.748;2022-09-03T08:37:31;14.77;;;7.50;;
18302;SDS011;9277;37.980;23.748;2022-09-03T08:39:58;12.40;;;6.18;;
18302;SDS011;9277;37.980;23.748;2022-09-03T08:42:30;10.88;;;6.80;;
18302;SDS011;9277;37.980;23.748;2022-09-03T08:44:59;15.25;;;8.15;;
18302;SDS011;9277;37.980;23.748;2022-09-03T08:47:28;12.77;;;7.25;;
18302;SDS011;9277;37.980;23.748;2022-09-03T08:49:56;12.15;;;6.85;;
18302;SDS011;9277;37.980;23.748;2022-09-03T08:52:27;13.82;;;7.60;;
18302;SDS011;9277;37.980;23.748;2022-09-03T08:54:58;15.80;;;7.55;;
18302;SDS011;9277;37.980;23.748;2022-09-03T08:57:26;11.13;;;7.22;;
18302;SDS011;9277;37.980;23.748;2022-09-03T08:59:54;10.73;;;6.93;;
18302;SDS011;9277;37.980;23.748;2022-09-03T09:02:23;10.60;;;6.90;;
18302;SDS011;9277;37.980;23.748;2022-09-03T09:04:54;16.55;;;7.65;;
18302;SDS011;9277;37.980;23.748;2022-09-03T09:07:25;14.80;;;8.23;;
18302;SDS011;9277;37.980;23.748;2022-09-03T09:09:58;11.82;;;7.45;;
18302;SDS011;9277;37.980;23.748;2022-09-03T09:12:28;11.55;;;7.45;;
18302;SDS011;9277;37.980;23.748;2022-09-03T09:15:03;11.98;;;7.45;;
18302;SDS011;9277;37.980;23.748;2022-09-03T09:17:35;14.98;;;7.97;;
18302;SDS011;9277;37.980;23.748;2022-09-03T09:20:05;12.32;;;7.35;;
18302;SDS011;9277;37.980;23.748;2022-09-03T09:22:33;12.38;;;8.38;;
18302;SDS011;9277;37.980;23.748;2022-09-03T09:25:05;13.52;;;7.45;;
18302;SDS011;9277;37.980;23.748;2022-09-03T09:27:33;10.95;;;7.30;;
18302;SDS011;9277;37.980;23.748;2022-09-03T09:30:00;16.33;;;8.75;;
18302;SDS011;9277;37.980;23.748;2022-09-03T09:32:29;11.40;;;7.43;;
18302;SDS011;9277;37.980;23.748;2022-09-03T09:34:59;13.73;;;7.82;;
18302;SDS011;9277;37.980;23.748;2022-09-03T09:37:26;12.48;;;7.18;;
18302;SDS011;9277;37.980;23.748;2022-09-03T09:39:55;15.80;;;7.93;;
18302;SDS011;9277;37.980;23.748;2022-09-03T09:42:24;13.40;;;8.23;;
18302;SDS011;9277;37.980;23.748;2022-09-03T09:44:54;13.77;;;6.80;;
18302;SDS011;9277;37.980;23.748;2022-09-03T09:47:22;11.63;;;7.32;;
18302;SDS011;9277;37.980;23.748;2022-09-03T09:49:51;14.05;;;8.23;;
18302;SDS011;9277;37.980;23.748;2022-09-03T09:52:18;13.70;;;6.70;;
18302;SDS011;9277;37.980;23.748;2022-09-03T09:54:49;9.85;;;6.97;;
18302;SDS011;9277;37.980;23.748;2022-09-03T09:57:17;12.70;;;7.57;;
18302;SDS011;9277;37.980;23.748;2022-09-03T09:59:48;11.98;;;7.97;;
18302;SDS011;9277;37.980;23.748;2022-09-03T10:02:18;13.23;;;7.50;;
18302;SDS011;9277;37.980;23.748;2022-09-03T10:04:46;11.45;;;8.25;;
18302;SDS011;9277;37.980;23.748;2022-09-03T10:07:21;13.65;;;8.40;;
18302;SDS011;9277;37.980;23.748;2022-09-03T10:09:56;18.88;;;8.60;;
18302;SDS011;9277;37.980;23.748;2022-09-03T10:12:25;12.10;;;7.97;;
18302;SDS011;9277;37.980;23.748;2022-09-03T10:14:56;12.82;;;8.70;;
18302;SDS011;9277;37.980;23.748;2022-09-03T10:17:25;12.77;;;8.80;;
18302;SDS011;9277;37.980;23.748;2022-09-03T10:19:56;12.10;;;9.07;;
18302;SDS011;9277;37.980;23.748;2022-09-03T10:22:39;12.38;;;8.02;;
18302;SDS011;9277;37.980;23.748;2022-09-03T10:25:10;13.60;;;8.23;;
18302;SDS011;9277;37.980;23.748;2022-09-03T10:27:38;11.38;;;8.18;;
18302;SDS011;9277;37.980;23.748;2022-09-03T10:30:08;17.05;;;8.90;;
18302;SDS011;9277;37.980;23.748;2022-09-03T10:32:36;15.00;;;8.18;;
18302;SDS011;9277;37.980;23.748;2022-09-03T10:35:09;12.30;;;8.07;;
18302;SDS011;9277;37.980;23.748;2022-09-03T10:37:48;14.88;;;8.70;;
18302;SDS011;9277;37.980;23.748;2022-09-03T10:40:18;13.80;;;8.43;;
18302;SDS011;9277;37.980;23.748;2022-09-03T10:42:59;12.98;;;7.90;;
18302;SDS011;9277;37.980;23.748;2022-09-03T10:45:34;12.02;;;8.35;;
18302;SDS011;9277;37.980;23.748;2022-09-03T10:48:15;16.52;;;7.88;;
18302;SDS011;9277;37.980;23.748;2022-09-03T10:50:50;15.07;;;7.68;;
18302;SDS011;9277;37.980;23.748;2022-09-03T10:53:26;12.80;;;8.27;;
18302;SDS011;9277;37.980;23.748;2022-09-03T10:55:57;13.23;;;7.68;;
18302;SDS011;9277;37.980;23.748;2022-09-03T10:58:35;18.45;;;8.57;;
18302;SDS011;9277;37.980;23.748;2022-09-03T11:01:08;13.43;;;7.97;;
18302;SDS011;9277;37.980;23.748;2022-09-03T11:03:42;16.65;;;8.02;;
18302;SDS011;9277;37.980;23.748;2022-09-03T11:06:10;9.95;;;7.70;;
18302;SDS011;9277;37.980;23.748;2022-09-03T11:08:50;10.75;;;8.02;;
18302;SDS011;9277;37.980;23.748;2022-09-03T11:11:36;12.10;;;7.45;;
18302;SDS011;9277;37.980;23.748;2022-09-03T11:14:08;14.07;;;8.10;;
18302;SDS011;9277;37.980;23.748;2022-09-03T11:16:37;14.57;;;8.60;;
18302;SDS011;9277;37.980;23.748;2022-09-03T11:19:06;11.80;;;7.38;;
18302;SDS011;9277;37.980;23.748;2022-09-03T11:21:35;12.32;;;8.23;;
18302;SDS011;9277;37.980;23.748;2022-09-03T11:24:04;13.77;;;8.25;;
18302;SDS011;9277;37.980;23.748;2022-09-03T11:26:34;11.80;;;7.75;;
18302;SDS011;9277;37.980;23.748;2022-09-03T11:29:03;9.68;;;7.38;;
18302;SDS011;9277;37.980;23.748;2022-09-03T11:31:35;13.85;;;8.05;;
18302;SDS011;9277;37.980;23.748;2022-09-03T11:34:07;11.65;;;7.22;;
18302;SDS011;9277;37.980;23.748;2022-09-03T11:36:35;11.93;;;8.07;;
18302;SDS011;9277;37.980;23.748;2022-09-03T11:39:11;16.50;;;9.30;;
18302;SDS011;9277;37.980;23.748;2022-09-03T11:41:40;15.75;;;8.23;;
18302;SDS011;9277;37.980;23.748;2022-09-03T11:44:15;13.38;;;8.23;;
18302;SDS011;9277;37.980;23.748;2022-09-03T11:46:51;15.68;;;8.10;;
18302;SDS011;9277;37.980;23.748;2022-09-03T11:49:24;8.85;;;6.43;;
18302;SDS011;9277;37.980;23.748;2022-09-03T11:51:55;12.50;;;7.93;;
18302;SDS011;9277;37.980;23.748;2022-09-03T11:54:24;13.95;;;8.57;;
18302;SDS011;9277;37.980;23.748;2022-09-03T11:57:12;13.02;;;7.65;;
18302;SDS011;9277;37.980;23.748;2022-09-03T11:59:43;20.30;;;8.70;;
18302;SDS011;9277;37.980;23.748;2022-09-03T12:02:21;18.97;;;8.10;;
18302;SDS011;9277;37.980;23.748;2022-09-03T12:04:53;13.63;;;7.72;;
18302;SDS011;9277;37.980;23.748;2022-09-03T12:07:30;13.52;;;7.82;;
18302;SDS011;9277;37.980;23.748;2022-09-03T12:10:02;14.30;;;7.43;;
18302;SDS011;9277;37.980;23.748;2022-09-03T12:12:47;18.17;;;8.18;;
18302;SDS011;9277;37.980;23.748;2022-09-03T12:15:19;14.38;;;6.97;;
18302;SDS011;9277;37.980;23.748;2022-09-03T12:17:50;11.98;;;7.22;;
18302;SDS011;9277;37.980;23.748;2022-09-03T12:20:40;11.30;;;7.50;;
18302;SDS011;9277;37.980;23.748;2022-09-03T12:23:09;12.75;;;7.10;;
18302;SDS011;9277;37.980;23.748;2022-09-03T12:25:41;13.95;;;6.60;;
18302;SDS011;9277;37.980;23.748;2022-09-03T12:28:10;10.40;;;6.53;;
18302;SDS011;9277;37.980;23.748;2022-09-03T12:30:37;12.18;;;6.00;;
18302;SDS011;9277;37.980;23.748;2022-09-03T12:33:04;9.07;;;5.80;;
18302;SDS011;9277;37.980;23.748;2022-09-03T12:35:31;9.27;;;6.63;;
18302;SDS011;9277;37.980;23.748;2022-09-03T12:38:00;10.07;;;5.78;;
18302;SDS011;9277;37.980;23.748;2022-09-03T12:40:27;9.57;;;6.38;;
18302;SDS011;9277;37.980;23.748;2022-09-03T12:42:54;8.43;;;6.38;;
18302;SDS011;9277;37.980;23.748;2022-09-03T12:45:22;11.05;;;6.18;;
18302;SDS011;9277;37.980;23.748;2022-09-03T12:47:49;8.95;;;6.35;;
18302;SDS011;9277;37.980;23.748;2022-09-03T12:50:18;12.77;;;6.68;;
18302;SDS011;9277;37.980;23.748;2022-09-03T12:52:45;12.15;;;5.80;;
18302;SDS011;9277;37.980;23.748;2022-09-03T12:55:17;11.45;;;5.30;;
18302;SDS011;9277;37.980;23.748;2022-09-03T12:57:47;11.70;;;6.25;;
18302;SDS011;9277;37.980;23.748;2022-09-03T13:00:15;6.75;;;5.45;;
18302;SDS011;9277;37.980;23.748;2022-09-03T13:02:44;7.43;;;5.57;;
18302;SDS011;9277;37.980;23.748;2022-09-03T13:05:15;7.80;;;4.75;;
18302;SDS011;9277;37.980;23.748;2022-09-03T13:07:43;7.93;;;5.32;;
18302;SDS011;9277;37.980;23.748;2022-09-03T13:10:15;7.40;;;4.38;;
18302;SDS011;9277;37.980;23.748;2022-09-03T13:12:48;6.35;;;4.78;;
18302;SDS011;9277;37.980;23.748;2022-09-03T13:15:17;6.20;;;4.68;;
18302;SDS011;9277;37.980;23.748;2022-09-03T13:17:54;6.25;;;4.78;;
18302;SDS011;9277;37.980;23.748;2022-09-03T13:20:28;7.72;;;4.93;;
18302;SDS011;9277;37.980;23.748;2022-09-03T13:23:07;10.55;;;5.50;;
18302;SDS011;9277;37.980;23.748;2022-09-03T13:25:36;6.07;;;4.40;;
18302;SDS011;9277;37.980;23.748;2022-09-03T13:28:10;10.30;;;5.25;;
18302;SDS011;9277;37.980;23.748;2022-09-03T13:30:42;15.02;;;5.97;;
18302;SDS011;9277;37.980;23.748;2022-09-03T13:33:14;9.98;;;5.60;;
18302;SDS011;9277;37.980;23.748;2022-09-03T13:35:44;7.78;;;4.28;;
18302;SDS011;9277;37.980;23.748;2022-09-03T13:38:14;8.60;;;4.40;;
18302;SDS011;9277;37.980;23.748;2022-09-03T13:40:46;4.75;;;4.28;;
18302;SDS011;9277;37.980;23.748;2022-09-03T13:43:21;8.00;;;4.60;;
18302;SDS011;9277;37.980;23.748;2022-09-03T13:45:51;9.13;;;5.75;;
18302;SDS011;9277;37.980;23.748;2022-09-03T13:48:21;10.77;;;5.78;;
18302;SDS011;9277;37.980;23.748;2022-09-03T13:51:08;10.30;;;5.45;;
18302;SDS011;9277;37.980;23.748;2022-09-03T13:53:43;13.85;;;5.75;;
18302;SDS011;9277;37.980;23.748;2022-09-03T13:56:20;11.48;;;7.22;;
18302;SDS011;9277;37.980;23.748;2022-09-03T13:58:49;9.25;;;5.95;;
18302;SDS011;9277;37.980;23.748;2022-09-03T14:01:20;8.07;;;5.68;;
18302;SDS011;9277;37.980;23.748;2022-09-03T14:03:50;10.55;;;5.18;;
18302;SDS011;9277;37.980;23.748;2022-09-03T14:06:20;12.02;;;5.20;;
18302;SDS011;9277;37.980;23.748;2022-09-03T14:08:58;11.55;;;5.82;;
18302;SDS011;9277;37.980;23.748;2022-09-03T14:11:27;7.97;;;6.00;;
18302;SDS011;9277;37.980;23.748;2022-09-03T14:14:01;10.88;;;6.30;;
18302;SDS011;9277;37.980;23.748;2022-09-03T14:16:34;8.05;;;5.65;;
18302;SDS011;9277;37.980;23.748;2022-09-03T14:19:04;7.82;;;6.22;;
18302;SDS011;9277;37.980;23.748;2022-09-03T14:21:33;7.97;;;6.60;;
18302;SDS011;9277;37.980;23.748;2022-09-03T14:24:03;9.95;;;6.55;;
18302;SDS011;9277;37.980;23.748;2022-09-03T14:26:32;10.48;;;6.63;;
18302;SDS011;9277;37.980;23.748;2022-09-03T14:29:01;11.98;;;6.55;;
18302;SDS011;9277;37.980;23.748;2022-09-03T14:31:32;9.63;;;7.07;;
18302;SDS011;9277;37.980;23.748;2022-09-03T14:34:05;12.90;;;7.45;;
18302;SDS011;9277;37.980;23.748;2022-09-03T14:36:36;12.40;;;6.65;;
18302;SDS011;9277;37.980;23.748;2022-09-03T14:39:16;11.13;;;8.48;;
18302;SDS011;9277;37.980;23.748;2022-09-03T14:42:01;12.50;;;8.77;;
18302;SDS011;9277;37.980;23.748;2022-09-03T14:44:40;19.20;;;8.95;;
18302;SDS011;9277;37.980;23.748;2022-09-03T14:47:17;13.80;;;8.70;;
18302;SDS011;9277;37.980;23.748;2022-09-03T14:49:55;13.73;;;8.63;;
18302;SDS011;9277;37.980;23.748;2022-09-03T14:52:37;16.33;;;9.07;;
18302;SDS011;9277;37.980;23.748;2022-09-03T14:55:17;14.07;;;8.95;;
18302;SDS011;9277;37.980;23.748;2022-09-03T14:57:52;14.80;;;8.50;;
18302;SDS011;9277;37.980;23.748;2022-09-03T15:00:23;15.52;;;9.15;;
18302;SDS011;9277;37.980;23.748;2022-09-03T15:03:14;14.90;;;9.90;;
18302;SDS011;9277;37.980;23.748;2022-09-03T15:05:46;15.85;;;9.00;;